sensor_id;sensor_type;location;lat;lon;timestamp;pressure;altitude;pressure_sealevel;temperature;humidity
28027;BME280;15344;52.342;-1.290;2023-03-11T00:00:35;99623.08;;;5.34;78.83
28027;BME280;15344;52.342;-1.290;2023-03-11T00:03:01;99620.06;;;6.25;72.72
28027;BME280;15344;52.342;-1.290;2023-03-11T00:05:26;99618.58;;;6.13;71.96
28027;BME280;15344;52.342;-1.290;2023-03-11T00:07:50;99623.06;;;6.17;73.84
28027;BME280;15344;52.342;-1.290;2023-03-11T00:10:18;99625.21;;;5.55;76.10
28027;BME280;15344;52.342;-1.290;2023-03-11T00:12:41;99620.06;;;5.05;76.56
28027;BME280;15344;52.342;-1.290;2023-03-11T00:15:08;99623.18;;;5.71;74.38
28027;BME280;15344;52.342;-1.290;2023-03-11T00:17:32;99624.14;;;5.89;72.19
28027;BME280;15344;52.342;-1.290;2023-03-11T00:19:58;99622.63;;;5.99;71.59
28027;BME280;15344;52.342;-1.290;2023-03-11T00:22:24;99617.38;;;5.31;74.09
28027;BME280;15344;52.342;-1.290;2023-03-11T00:24:49;99614.20;;;5.80;73.44
28027;BME280;15344;52.342;-1.290;2023-03-11T00:27:15;99609.22;;;5.30;76.13
28027;BME280;15344;52.342;-1.290;2023-03-11T00:29:41;99609.84;;;4.84;76.51
28027;BME280;15344;52.342;-1.290;2023-03-11T00:32:07;99610.41;;;5.72;73.76
28027;BME280;15344;52.342;-1.290;2023-03-11T00:34:32;99610.49;;;5.42;74.07
28027;BME280;15344;52.342;-1.290;2023-03-11T00:36:58;99609.19;;;5.21;75.66
28027;BME280;15344;52.342;-1.290;2023-03-11T00:39:24;99612.25;;;5.66;73.33
28027;BME280;15344;52.342;-1.290;2023-03-11T00:41:49;99613.18;;;5.52;73.57
28027;BME280;15344;52.342;-1.290;2023-03-11T00:44:15;99614.27;;;5.45;71.76
28027;BME280;15344;52.342;-1.290;2023-03-11T00:46:40;99611.79;;;4.82;76.49
28027;BME280;15344;52.342;-1.290;2023-03-11T00:49:07;99608.39;;;5.05;76.23
28027;BME280;15344;52.342;-1.290;2023-03-11T00:51:32;99611.41;;;4.71;77.28
28027;BME280;15344;52.342;-1.290;2023-03-11T00:53:57;99606.36;;;5.00;74.27
28027;BME280;15344;52.342;-1.290;2023-03-11T00:56:23;99601.57;;;4.84;76.79
28027;BME280;15344;52.342;-1.290;2023-03-11T00:58:49;99599.51;;;5.04;76.56
28027;BME280;15344;52.342;-1.290;2023-03-11T01:01:16;99598.88;;;4.87;74.71
28027;BME280;15344;52.342;-1.290;2023-03-11T01:03:40;99601.77;;;4.54;77.13
28027;BME280;15344;52.342;-1.290;2023-03-11T01:06:06;99606.62;;;4.87;75.83
28027;BME280;15344;52.342;-1.290;2023-03-11T01:08:31;99607.45;;;5.28;73.67
28027;BME280;15344;52.342;-1.290;2023-03-11T01:10:57;99605.43;;;4.27;76.43
28027;BME280;15344;52.342;-1.290;2023-03-11T01:13:23;99604.86;;;4.82;76.77
28027;BME280;15344;52.342;-1.290;2023-03-11T01:15:48;99601.62;;;4.67;75.40
28027;BME280;15344;52.342;-1.290;2023-03-11T01:18:14;99604.28;;;4.91;75.39
28027;BME280;15344;52.342;-1.290;2023-03-11T01:20:39;99604.67;;;4.99;75.18
28027;BME280;15344;52.342;-1.290;2023-03-11T01:23:06;99603.70;;;5.18;74.06
28027;BME280;15344;52.342;-1.290;2023-03-11T01:25:31;99603.10;;;4.68;75.33
28027;BME280;15344;52.342;-1.290;2023-03-11T01:27:57;99602.76;;;4.85;75.75
28027;BME280;15344;52.342;-1.290;2023-03-11T01:30:24;99600.55;;;4.44;76.54
28027;BME280;15344;52.342;-1.290;2023-03-11T01:32:48;99603.24;;;5.07;74.08
28027;BME280;15344;52.342;-1.290;2023-03-11T01:35:16;99601.63;;;4.53;75.38
28027;BME280;15344;52.342;-1.290;2023-03-11T01:37:40;99601.86;;;4.47;76.73
28027;BME280;15344;52.342;-1.290;2023-03-11T01:40:08;99600.71;;;4.84;75.55
28027;BME280;15344;52.342;-1.290;2023-03-11T01:42:31;99605.23;;;4.90;74.83
28027;BME280;15344;52.342;-1.290;2023-03-11T01:44:57;99603.18;;;4.12;79.21
28027;BME280;15344;52.342;-1.290;2023-03-11T01:47:33;99598.59;;;4.24;77.87
28027;BME280;15344;52.342;-1.290;2023-03-11T01:49:48;99596.01;;;4.51;76.92
28027;BME280;15344;52.342;-1.290;2023-03-11T01:52:13;99595.42;;;4.51;76.84
28027;BME280;15344;52.342;-1.290;2023-03-11T01:54:40;99596.22;;;4.70;75.34
28027;BME280;15344;52.342;-1.290;2023-03-11T01:57:08;99594.54;;;3.65;80.37
28027;BME280;15344;52.342;-1.290;2023-03-11T01:59:32;99596.69;;;4.71;76.06
28027;BME280;15344;52.342;-1.290;2023-03-11T02:02:01;99593.48;;;4.65;75.58
28027;BME280;15344;52.342;-1.290;2023-03-11T02:04:22;99588.10;;;4.80;73.96
28027;BME280;15344;52.342;-1.290;2023-03-11T02:06:48;99584.86;;;4.80;73.29
28027;BME280;15344;52.342;-1.290;2023-03-11T02:09:13;99581.77;;;4.61;76.17
28027;BME280;15344;52.342;-1.290;2023-03-11T02:11:39;99579.36;;;4.39;74.89
28027;BME280;15344;52.342;-1.290;2023-03-11T02:14:06;99579.59;;;4.08;75.72
28027;BME280;15344;52.342;-1.290;2023-03-11T02:16:31;99577.81;;;4.29;75.53
28027;BME280;15344;52.342;-1.290;2023-03-11T02:18:58;99572.28;;;4.03;76.95
28027;BME280;15344;52.342;-1.290;2023-03-11T02:21:24;99575.15;;;3.97;77.58
28027;BME280;15344;52.342;-1.290;2023-03-11T02:23:54;99570.70;;;4.29;78.39
28027;BME280;15344;52.342;-1.290;2023-03-11T02:26:17;99570.58;;;3.86;78.31
28027;BME280;15344;52.342;-1.290;2023-03-11T02:28:40;99565.58;;;4.06;76.75
28027;BME280;15344;52.342;-1.290;2023-03-11T02:31:04;99563.50;;;3.76;78.00
28027;BME280;15344;52.342;-1.290;2023-03-11T02:33:31;99557.57;;;4.60;76.79
28027;BME280;15344;52.342;-1.290;2023-03-11T02:35:56;99554.42;;;4.48;76.62
28027;BME280;15344;52.342;-1.290;2023-03-11T02:38:22;99555.52;;;3.93;77.44
28027;BME280;15344;52.342;-1.290;2023-03-11T02:40:51;99558.12;;;3.61;78.56
28027;BME280;15344;52.342;-1.290;2023-03-11T02:43:16;99561.31;;;4.10;78.78
28027;BME280;15344;52.342;-1.290;2023-03-11T02:45:39;99559.83;;;4.24;78.14
28027;BME280;15344;52.342;-1.290;2023-03-11T02:48:06;99554.46;;;4.35;74.97
28027;BME280;15344;52.342;-1.290;2023-03-11T02:50:30;99552.15;;;4.46;74.65
28027;BME280;15344;52.342;-1.290;2023-03-11T02:52:56;99549.54;;;4.28;74.70
28027;BME280;15344;52.342;-1.290;2023-03-11T02:55:22;99544.18;;;3.45;74.36
28027;BME280;15344;52.342;-1.290;2023-03-11T02:57:47;99540.37;;;3.98;75.28
28027;BME280;15344;52.342;-1.290;2023-03-11T03:00:15;99537.88;;;4.08;72.28
28027;BME280;15344;52.342;-1.290;2023-03-11T03:02:38;99537.36;;;4.42;73.93
28027;BME280;15344;52.342;-1.290;2023-03-11T03:05:05;99544.70;;;4.04;74.87
28027;BME280;15344;52.342;-1.290;2023-03-11T03:07:30;99545.39;;;4.60;73.14
28027;BME280;15344;52.342;-1.290;2023-03-11T03:09:55;99548.33;;;3.83;76.20
28027;BME280;15344;52.342;-1.290;2023-03-11T03:12:21;99552.01;;;3.60;76.48
28027;BME280;15344;52.342;-1.290;2023-03-11T03:14:47;99554.30;;;4.18;76.47
28027;BME280;15344;52.342;-1.290;2023-03-11T03:17:13;99552.88;;;4.42;75.71
28027;BME280;15344;52.342;-1.290;2023-03-11T03:19:38;99554.32;;;4.42;76.20
28027;BME280;15344;52.342;-1.290;2023-03-11T03:22:04;99554.23;;;4.06;76.82
28027;BME280;15344;52.342;-1.290;2023-03-11T03:24:30;99559.33;;;4.43;76.82
28027;BME280;15344;52.342;-1.290;2023-03-11T03:26:56;99561.01;;;4.70;77.62
28027;BME280;15344;52.342;-1.290;2023-03-11T03:29:21;99558.23;;;4.00;78.90
28027;BME280;15344;52.342;-1.290;2023-03-11T03:31:47;99560.13;;;4.87;76.64
28027;BME280;15344;52.342;-1.290;2023-03-11T03:34:12;99560.07;;;4.71;75.08
28027;BME280;15344;52.342;-1.290;2023-03-11T03:36:38;99561.39;;;4.21;77.26
28027;BME280;15344;52.342;-1.290;2023-03-11T03:39:04;99558.75;;;4.26;77.62
28027;BME280;15344;52.342;-1.290;2023-03-11T03:41:29;99557.38;;;4.02;79.76
28027;BME280;15344;52.342;-1.290;2023-03-11T03:43:54;99561.16;;;4.81;76.30
28027;BME280;15344;52.342;-1.290;2023-03-11T03:46:20;99558.84;;;4.07;77.25
28027;BME280;15344;52.342;-1.290;2023-03-11T03:48:45;99550.59;;;5.00;73.93
28027;BME280;15344;52.342;-1.290;2023-03-11T03:51:12;99547.77;;;5.13;70.20
28027;BME280;15344;52.342;-1.290;2023-03-11T03:53:36;99543.66;;;4.60;70.99
28027;BME280;15344;52.342;-1.290;2023-03-11T03:56:02;99546.70;;;4.49;72.01
28027;BME280;15344;52.342;-1.290;2023-03-11T03:58:27;99555.81;;;3.76;71.08
28027;BME280;15344;52.342;-1.290;2023-03-11T04:00:55;99553.28;;;4.95;68.99
28027;BME280;15344;52.342;-1.290;2023-03-11T04:03:19;99554.11;;;4.46;70.58
28027;BME280;15344;52.342;-1.290;2023-03-11T04:05:44;99553.65;;;4.50;69.01
28027;BME280;15344;52.342;-1.290;2023-03-11T04:08:10;99551.08;;;3.99;69.67
28027;BME280;15344;52.342;-1.290;2023-03-11T04:10:36;99557.89;;;4.62;66.46
28027;BME280;15344;52.342;-1.290;2023-03-11T04:13:02;99557.30;;;4.61;67.21
28027;BME280;15344;52.342;-1.290;2023-03-11T04:15:27;99556.52;;;4.46;64.23
28027;BME280;15344;52.342;-1.290;2023-03-11T04:17:53;99553.83;;;4.83;63.43
28027;BME280;15344;52.342;-1.290;2023-03-11T04:20:19;99557.35;;;4.51;64.10
28027;BME280;15344;52.342;-1.290;2023-03-11T04:22:44;99563.64;;;4.31;69.54
28027;BME280;15344;52.342;-1.290;2023-03-11T04:25:10;99562.16;;;4.70;66.46
28027;BME280;15344;52.342;-1.290;2023-03-11T04:27:36;99561.82;;;5.06;64.26
28027;BME280;15344;52.342;-1.290;2023-03-11T04:30:02;99563.83;;;5.15;66.28
28027;BME280;15344;52.342;-1.290;2023-03-11T04:32:27;99564.15;;;5.37;67.35
28027;BME280;15344;52.342;-1.290;2023-03-11T04:34:53;99563.20;;;5.13;65.86
28027;BME280;15344;52.342;-1.290;2023-03-11T04:37:19;99568.18;;;5.19;64.49
28027;BME280;15344;52.342;-1.290;2023-03-11T04:39:44;99570.08;;;5.27;65.16
28027;BME280;15344;52.342;-1.290;2023-03-11T04:42:09;99566.83;;;5.57;61.09
28027;BME280;15344;52.342;-1.290;2023-03-11T04:44:35;99576.28;;;5.43;65.38
28027;BME280;15344;52.342;-1.290;2023-03-11T04:47:01;99576.03;;;5.39;65.98
28027;BME280;15344;52.342;-1.290;2023-03-11T04:49:27;99584.81;;;4.98;63.28
28027;BME280;15344;52.342;-1.290;2023-03-11T04:51:52;99586.14;;;4.64;65.15
28027;BME280;15344;52.342;-1.290;2023-03-11T04:54:18;99591.84;;;5.60;63.20
28027;BME280;15344;52.342;-1.290;2023-03-11T04:56:44;99595.08;;;5.03;64.40
28027;BME280;15344;52.342;-1.290;2023-03-11T04:59:09;99598.06;;;5.76;62.02
28027;BME280;15344;52.342;-1.290;2023-03-11T05:01:35;99601.60;;;5.77;60.39
28027;BME280;15344;52.342;-1.290;2023-03-11T05:04:01;99602.65;;;5.67;62.91
28027;BME280;15344;52.342;-1.290;2023-03-11T05:06:26;99602.18;;;5.08;66.43
28027;BME280;15344;52.342;-1.290;2023-03-11T05:08:52;99605.17;;;6.06;64.96
28027;BME280;15344;52.342;-1.290;2023-03-11T05:11:17;99608.77;;;5.44;67.19
28027;BME280;15344;52.342;-1.290;2023-03-11T05:13:43;99610.79;;;5.68;64.14
28027;BME280;15344;52.342;-1.290;2023-03-11T05:16:09;99616.29;;;6.32;66.39
28027;BME280;15344;52.342;-1.290;2023-03-11T05:18:34;99615.71;;;5.95;67.26
28027;BME280;15344;52.342;-1.290;2023-03-11T05:21:01;99608.31;;;6.05;67.52
28027;BME280;15344;52.342;-1.290;2023-03-11T05:23:26;99603.67;;;5.94;66.40
28027;BME280;15344;52.342;-1.290;2023-03-11T05:25:52;99605.85;;;5.63;66.53
28027;BME280;15344;52.342;-1.290;2023-03-11T05:28:17;99611.62;;;5.79;67.31
28027;BME280;15344;52.342;-1.290;2023-03-11T05:30:43;99612.41;;;5.51;65.50
28027;BME280;15344;52.342;-1.290;2023-03-11T05:33:09;99614.81;;;5.97;65.15
28027;BME280;15344;52.342;-1.290;2023-03-11T05:35:34;99606.55;;;5.34;66.55
28027;BME280;15344;52.342;-1.290;2023-03-11T05:38:00;99607.58;;;5.49;64.38
28027;BME280;15344;52.342;-1.290;2023-03-11T05:40:26;99602.17;;;5.75;65.92
28027;BME280;15344;52.342;-1.290;2023-03-11T05:42:51;99595.25;;;5.73;65.28
28027;BME280;15344;52.342;-1.290;2023-03-11T05:45:17;99593.12;;;5.81;66.82
28027;BME280;15344;52.342;-1.290;2023-03-11T05:47:42;99590.26;;;5.77;67.34
28027;BME280;15344;52.342;-1.290;2023-03-11T05:50:10;99589.85;;;5.59;67.93
28027;BME280;15344;52.342;-1.290;2023-03-11T05:52:34;99595.34;;;5.89;62.82
28027;BME280;15344;52.342;-1.290;2023-03-11T05:54:59;99603.92;;;5.45;67.65
28027;BME280;15344;52.342;-1.290;2023-03-11T05:57:25;99607.91;;;5.81;66.04
28027;BME280;15344;52.342;-1.290;2023-03-11T05:59:51;99625.83;;;5.46;69.55
28027;BME280;15344;52.342;-1.290;2023-03-11T06:02:16;99625.23;;;6.17;64.05
28027;BME280;15344;52.342;-1.290;2023-03-11T06:04:42;99622.00;;;6.35;64.00
28027;BME280;15344;52.342;-1.290;2023-03-11T06:07:07;99630.18;;;6.04;65.31
28027;BME280;15344;52.342;-1.290;2023-03-11T06:09:33;99640.13;;;6.21;66.64
28027;BME280;15344;52.342;-1.290;2023-03-11T06:11:59;99640.31;;;6.13;68.82
28027;BME280;15344;52.342;-1.290;2023-03-11T06:14:24;99645.71;;;5.83;71.17
28027;BME280;15344;52.342;-1.290;2023-03-11T06:16:50;99648.24;;;6.13;69.54
28027;BME280;15344;52.342;-1.290;2023-03-11T06:19:15;99644.36;;;6.46;68.25
28027;BME280;15344;52.342;-1.290;2023-03-11T06:21:41;99657.78;;;6.15;69.38
28027;BME280;15344;52.342;-1.290;2023-03-11T06:24:07;99659.56;;;6.05;70.45
28027;BME280;15344;52.342;-1.290;2023-03-11T06:26:32;99660.69;;;6.31;68.58
28027;BME280;15344;52.342;-1.290;2023-03-11T06:28:58;99670.73;;;6.28;68.78
28027;BME280;15344;52.342;-1.290;2023-03-11T06:31:26;99675.09;;;6.18;69.33
28027;BME280;15344;52.342;-1.290;2023-03-11T06:33:49;99677.12;;;5.81;70.01
28027;BME280;15344;52.342;-1.290;2023-03-11T06:36:16;99676.07;;;6.07;70.06
28027;BME280;15344;52.342;-1.290;2023-03-11T06:38:41;99665.45;;;5.90;67.77
28027;BME280;15344;52.342;-1.290;2023-03-11T06:41:06;99654.35;;;6.43;67.67
28027;BME280;15344;52.342;-1.290;2023-03-11T06:43:32;99638.49;;;6.34;67.07
28027;BME280;15344;52.342;-1.290;2023-03-11T06:45:58;99646.28;;;6.10;66.29
28027;BME280;15344;52.342;-1.290;2023-03-11T06:48:24;99643.78;;;5.64;66.00
28027;BME280;15344;52.342;-1.290;2023-03-11T06:50:53;99643.31;;;5.98;66.98
28027;BME280;15344;52.342;-1.290;2023-03-11T06:53:14;99635.73;;;6.25;65.96
28027;BME280;15344;52.342;-1.290;2023-03-11T06:55:39;99631.68;;;6.49;66.09
28027;BME280;15344;52.342;-1.290;2023-03-11T06:58:05;99636.30;;;6.40;65.40
28027;BME280;15344;52.342;-1.290;2023-03-11T07:00:30;99636.97;;;6.33;66.67
28027;BME280;15344;52.342;-1.290;2023-03-11T07:02:56;99638.39;;;5.58;65.89
28027;BME280;15344;52.342;-1.290;2023-03-11T07:05:22;99642.34;;;5.81;63.84
28027;BME280;15344;52.342;-1.290;2023-03-11T07:07:47;99654.62;;;6.16;64.26
28027;BME280;15344;52.342;-1.290;2023-03-11T07:10:13;99654.55;;;6.77;61.75
28027;BME280;15344;52.342;-1.290;2023-03-11T07:12:39;99656.37;;;6.23;63.03
28027;BME280;15344;52.342;-1.290;2023-03-11T07:15:05;99654.76;;;6.90;62.41
28027;BME280;15344;52.342;-1.290;2023-03-11T07:17:30;99660.25;;;6.74;60.72
28027;BME280;15344;52.342;-1.290;2023-03-11T07:19:56;99661.18;;;6.89;63.06
28027;BME280;15344;52.342;-1.290;2023-03-11T07:22:21;99643.41;;;6.70;61.66
28027;BME280;15344;52.342;-1.290;2023-03-11T07:24:47;99644.55;;;6.75;63.22
28027;BME280;15344;52.342;-1.290;2023-03-11T07:27:13;99650.07;;;6.88;60.86
28027;BME280;15344;52.342;-1.290;2023-03-11T07:29:38;99645.97;;;6.83;58.87
28027;BME280;15344;52.342;-1.290;2023-03-11T07:32:06;99644.18;;;6.80;59.96
28027;BME280;15344;52.342;-1.290;2023-03-11T07:34:30;99642.29;;;5.64;62.75
28027;BME280;15344;52.342;-1.290;2023-03-11T07:36:55;99643.93;;;6.54;59.96
28027;BME280;15344;52.342;-1.290;2023-03-11T07:39:21;99642.12;;;6.82;58.34
28027;BME280;15344;52.342;-1.290;2023-03-11T07:41:46;99640.25;;;6.87;57.93
28027;BME280;15344;52.342;-1.290;2023-03-11T07:44:13;99635.15;;;6.94;61.62
28027;BME280;15344;52.342;-1.290;2023-03-11T07:46:38;99644.72;;;6.29;61.23
28027;BME280;15344;52.342;-1.290;2023-03-11T07:49:03;99637.68;;;7.01;59.79
28027;BME280;15344;52.342;-1.290;2023-03-11T07:51:32;99639.58;;;7.50;57.30
28027;BME280;15344;52.342;-1.290;2023-03-11T07:53:56;99638.77;;;6.92;57.28
28027;BME280;15344;52.342;-1.290;2023-03-11T07:56:22;99640.30;;;6.89;57.42
28027;BME280;15344;52.342;-1.290;2023-03-11T07:58:46;99640.17;;;7.14;57.30
28027;BME280;15344;52.342;-1.290;2023-03-11T08:01:14;99638.12;;;7.03;57.61
28027;BME280;15344;52.342;-1.290;2023-03-11T08:03:38;99648.00;;;6.54;58.16
28027;BME280;15344;52.342;-1.290;2023-03-11T08:06:07;99648.14;;;6.33;59.50
28027;BME280;15344;52.342;-1.290;2023-03-11T08:08:28;99653.18;;;6.67;59.19
28027;BME280;15344;52.342;-1.290;2023-03-11T08:10:54;99660.49;;;7.05;59.99
28027;BME280;15344;52.342;-1.290;2023-03-11T08:13:20;99667.49;;;7.12;58.96
28027;BME280;15344;52.342;-1.290;2023-03-11T08:15:45;99679.43;;;6.99;58.85
28027;BME280;15344;52.342;-1.290;2023-03-11T08:18:11;99673.82;;;7.04;59.39
28027;BME280;15344;52.342;-1.290;2023-03-11T08:20:37;99671.70;;;7.31;57.75
28027;BME280;15344;52.342;-1.290;2023-03-11T08:23:02;99661.24;;;7.24;57.60
28027;BME280;15344;52.342;-1.290;2023-03-11T08:25:27;99647.02;;;7.52;59.85
28027;BME280;15344;52.342;-1.290;2023-03-11T08:27:53;99640.37;;;7.49;59.29
28027;BME280;15344;52.342;-1.290;2023-03-11T08:30:19;99632.08;;;6.66;60.55
28027;BME280;15344;52.342;-1.290;2023-03-11T08:32:44;99636.31;;;6.81;59.03
28027;BME280;15344;52.342;-1.290;2023-03-11T08:35:10;99639.29;;;7.13;59.70
28027;BME280;15344;52.342;-1.290;2023-03-11T08:37:35;99644.44;;;6.31;61.78
28027;BME280;15344;52.342;-1.290;2023-03-11T08:40:01;99645.35;;;7.01;62.56
28027;BME280;15344;52.342;-1.290;2023-03-11T08:42:27;99652.07;;;7.20;63.28
28027;BME280;15344;52.342;-1.290;2023-03-11T08:44:52;99653.39;;;7.37;61.98
28027;BME280;15344;52.342;-1.290;2023-03-11T08:47:18;99656.75;;;7.01;61.37
28027;BME280;15344;52.342;-1.290;2023-03-11T08:49:43;99660.35;;;6.76;62.20
28027;BME280;15344;52.342;-1.290;2023-03-11T08:52:09;99658.44;;;7.10;61.27
28027;BME280;15344;52.342;-1.290;2023-03-11T08:54:34;99664.93;;;6.69;62.20
28027;BME280;15344;52.342;-1.290;2023-03-11T08:57:00;99670.58;;;6.48;61.24
28027;BME280;15344;52.342;-1.290;2023-03-11T08:59:26;99673.57;;;7.03;63.27
28027;BME280;15344;52.342;-1.290;2023-03-11T09:01:51;99675.38;;;6.38;62.72
28027;BME280;15344;52.342;-1.290;2023-03-11T09:04:17;99673.36;;;6.30;63.41
28027;BME280;15344;52.342;-1.290;2023-03-11T09:06:43;99669.46;;;6.55;64.86
28027;BME280;15344;52.342;-1.290;2023-03-11T09:09:09;99668.40;;;6.44;65.20
28027;BME280;15344;52.342;-1.290;2023-03-11T09:11:34;99660.04;;;7.15;64.35
28027;BME280;15344;52.342;-1.290;2023-03-11T09:13:59;99661.92;;;7.13;64.70
28027;BME280;15344;52.342;-1.290;2023-03-11T09:16:25;99661.82;;;7.80;63.50
28027;BME280;15344;52.342;-1.290;2023-03-11T09:18:50;99658.80;;;8.32;61.29
28027;BME280;15344;52.342;-1.290;2023-03-11T09:21:16;99657.05;;;8.59;58.30
28027;BME280;15344;52.342;-1.290;2023-03-11T09:23:41;99656.77;;;8.70;58.95
28027;BME280;15344;52.342;-1.290;2023-03-11T09:26:07;99650.98;;;9.05;58.08
28027;BME280;15344;52.342;-1.290;2023-03-11T09:28:32;99655.88;;;8.82;59.82
28027;BME280;15344;52.342;-1.290;2023-03-11T09:30:58;99655.11;;;9.48;57.04
28027;BME280;15344;52.342;-1.290;2023-03-11T09:33:24;99654.92;;;9.28;55.87
28027;BME280;15344;52.342;-1.290;2023-03-11T09:35:49;99654.73;;;8.48;58.88
28027;BME280;15344;52.342;-1.290;2023-03-11T09:38:14;99652.81;;;8.36;57.56
28027;BME280;15344;52.342;-1.290;2023-03-11T09:40:50;99656.74;;;7.31;58.08
28027;BME280;15344;52.342;-1.290;2023-03-11T09:43:09;99656.93;;;7.98;58.15
28027;BME280;15344;52.342;-1.290;2023-03-11T09:45:34;99653.67;;;7.85;58.65
28027;BME280;15344;52.342;-1.290;2023-03-11T09:48:07;99653.65;;;7.05;61.09
28027;BME280;15344;52.342;-1.290;2023-03-11T09:50:29;99651.36;;;7.75;60.22
28027;BME280;15344;52.342;-1.290;2023-03-11T09:52:55;99651.95;;;8.34;59.09
28027;BME280;15344;52.342;-1.290;2023-03-11T09:55:20;99651.87;;;8.33;55.39
28027;BME280;15344;52.342;-1.290;2023-03-11T09:57:38;99651.75;;;7.88;58.81
28027;BME280;15344;52.342;-1.290;2023-03-11T10:00:05;99647.83;;;8.03;57.51
28027;BME280;15344;52.342;-1.290;2023-03-11T10:02:30;99648.94;;;7.72;59.38
28027;BME280;15344;52.342;-1.290;2023-03-11T10:04:57;99644.28;;;8.27;56.96
28027;BME280;15344;52.342;-1.290;2023-03-11T10:07:24;99635.71;;;7.80;55.57
28027;BME280;15344;52.342;-1.290;2023-03-11T10:09:47;99631.75;;;7.61;56.66
28027;BME280;15344;52.342;-1.290;2023-03-11T10:12:21;99626.57;;;7.87;58.39
28027;BME280;15344;52.342;-1.290;2023-03-11T10:14:49;99624.21;;;8.18;55.44
28027;BME280;15344;52.342;-1.290;2023-03-11T10:17:08;99625.17;;;8.90;57.73
28027;BME280;15344;52.342;-1.290;2023-03-11T10:19:36;99625.43;;;8.50;59.21
28027;BME280;15344;52.342;-1.290;2023-03-11T10:21:59;99622.27;;;9.05;53.68
28027;BME280;15344;52.342;-1.290;2023-03-11T10:26:47;99623.64;;;8.60;54.83
28027;BME280;15344;52.342;-1.290;2023-03-11T10:29:15;99621.81;;;8.73;56.49
28027;BME280;15344;52.342;-1.290;2023-03-11T10:31:37;99624.51;;;9.40;54.14
28027;BME280;15344;52.342;-1.290;2023-03-11T10:34:03;99624.89;;;8.57;53.81
28027;BME280;15344;52.342;-1.290;2023-03-11T10:36:32;99626.78;;;7.72;54.29
28027;BME280;15344;52.342;-1.290;2023-03-11T10:38:52;99621.12;;;8.12;57.21
28027;BME280;15344;52.342;-1.290;2023-03-11T10:41:21;99618.42;;;9.17;52.95
28027;BME280;15344;52.342;-1.290;2023-03-11T10:43:44;99615.91;;;8.39;53.41
28027;BME280;15344;52.342;-1.290;2023-03-11T10:46:14;99614.81;;;9.09;55.59
28027;BME280;15344;52.342;-1.290;2023-03-11T10:48:33;99613.52;;;8.43;53.77
28027;BME280;15344;52.342;-1.290;2023-03-11T10:51:02;99616.50;;;8.12;54.48
28027;BME280;15344;52.342;-1.290;2023-03-11T10:53:23;99628.59;;;7.82;54.25
28027;BME280;15344;52.342;-1.290;2023-03-11T10:55:50;99640.13;;;8.06;51.36
28027;BME280;15344;52.342;-1.290;2023-03-11T10:58:17;99642.21;;;7.10;50.64
28027;BME280;15344;52.342;-1.290;2023-03-11T11:00:40;99636.43;;;8.40;51.06
28027;BME280;15344;52.342;-1.290;2023-03-11T11:03:13;99628.66;;;8.39;49.70
28027;BME280;15344;52.342;-1.290;2023-03-11T11:05:32;99623.65;;;8.53;53.58
28027;BME280;15344;52.342;-1.290;2023-03-11T11:08:02;99625.98;;;7.71;51.27
28027;BME280;15344;52.342;-1.290;2023-03-11T11:10:23;99626.97;;;8.11;54.72
28027;BME280;15344;52.342;-1.290;2023-03-11T11:12:53;99622.78;;;8.30;52.20
28027;BME280;15344;52.342;-1.290;2023-03-11T11:15:19;99615.03;;;8.72;48.35
28027;BME280;15344;52.342;-1.290;2023-03-11T11:17:38;99614.62;;;8.01;51.10
28027;BME280;15344;52.342;-1.290;2023-03-11T11:20:12;99618.21;;;8.56;53.38
28027;BME280;15344;52.342;-1.290;2023-03-11T11:22:29;99618.81;;;8.50;53.71
28027;BME280;15344;52.342;-1.290;2023-03-11T11:24:55;99605.31;;;7.62;50.31
28027;BME280;15344;52.342;-1.290;2023-03-11T11:27:22;99603.83;;;8.05;52.97
28027;BME280;15344;52.342;-1.290;2023-03-11T11:29:47;99604.82;;;8.57;51.07
28027;BME280;15344;52.342;-1.290;2023-03-11T11:32:17;99604.55;;;8.39;51.43
28027;BME280;15344;52.342;-1.290;2023-03-11T11:34:36;99602.83;;;8.37;49.73
28027;BME280;15344;52.342;-1.290;2023-03-11T11:37:04;99598.97;;;8.65;50.82
28027;BME280;15344;52.342;-1.290;2023-03-11T11:39:31;99602.28;;;8.54;52.11
28027;BME280;15344;52.342;-1.290;2023-03-11T11:41:54;99598.05;;;9.59;50.86
28027;BME280;15344;52.342;-1.290;2023-03-11T11:44:20;99603.26;;;9.47;48.08
28027;BME280;15344;52.342;-1.290;2023-03-11T11:46:48;99600.85;;;8.98;49.33
28027;BME280;15344;52.342;-1.290;2023-03-11T11:49:15;99600.19;;;8.79;50.97
28027;BME280;15344;52.342;-1.290;2023-03-11T11:51:37;99597.49;;;9.06;52.27
28027;BME280;15344;52.342;-1.290;2023-03-11T11:54:05;99588.33;;;9.17;53.83
28027;BME280;15344;52.342;-1.290;2023-03-11T11:56:26;99592.10;;;8.41;53.55
28027;BME280;15344;52.342;-1.290;2023-03-11T11:58:51;99592.48;;;8.03;55.28
28027;BME280;15344;52.342;-1.290;2023-03-11T12:01:23;99590.94;;;8.42;56.24
28027;BME280;15344;52.342;-1.290;2023-03-11T12:06:15;99585.82;;;8.52;54.80
28027;BME280;15344;52.342;-1.290;2023-03-11T12:08:38;99582.33;;;8.32;56.25
28027;BME280;15344;52.342;-1.290;2023-03-11T12:11:01;99584.38;;;7.38;60.87
28027;BME280;15344;52.342;-1.290;2023-03-11T12:13:36;99574.46;;;7.87;61.18
28027;BME280;15344;52.342;-1.290;2023-03-11T12:15:52;99575.00;;;8.87;59.55
28027;BME280;15344;52.342;-1.290;2023-03-11T12:18:19;99572.43;;;8.67;58.36
28027;BME280;15344;52.342;-1.290;2023-03-11T12:20:43;99568.00;;;9.14;56.69
28027;BME280;15344;52.342;-1.290;2023-03-11T12:23:16;99561.43;;;8.12;58.08
28027;BME280;15344;52.342;-1.290;2023-03-11T12:25:37;99565.04;;;8.07;59.92
28027;BME280;15344;52.342;-1.290;2023-03-11T12:28:02;99561.33;;;8.39;59.50
28027;BME280;15344;52.342;-1.290;2023-03-11T12:30:25;99557.11;;;8.81;57.14
28027;BME280;15344;52.342;-1.290;2023-03-11T12:32:51;99560.91;;;8.93;56.62
28027;BME280;15344;52.342;-1.290;2023-03-11T12:35:20;99560.80;;;9.77;56.38
28027;BME280;15344;52.342;-1.290;2023-03-11T12:37:39;99562.98;;;8.96;57.25
28027;BME280;15344;52.342;-1.290;2023-03-11T12:42:37;99565.25;;;8.72;57.28
28027;BME280;15344;52.342;-1.290;2023-03-11T12:47:24;99567.01;;;9.08;59.07
28027;BME280;15344;52.342;-1.290;2023-03-11T12:49:47;99560.86;;;8.86;57.09
28027;BME280;15344;52.342;-1.290;2023-03-11T12:52:18;99554.60;;;8.51;59.61
28027;BME280;15344;52.342;-1.290;2023-03-11T12:54:38;99553.07;;;8.57;58.52
28027;BME280;15344;52.342;-1.290;2023-03-11T12:57:06;99556.44;;;8.97;58.57
28027;BME280;15344;52.342;-1.290;2023-03-11T12:59:37;99548.27;;;8.18;61.17